Terminal Aerodrome Forecast
Issued by NWS Sioux Falls, SD

Home | Current Version | Previous Version | Text Only | Print | Product List | Glossary On
Versions: 1 2 3 4 5 6 7 8 9 10 11 12 13 14
296
FTUS43 KFSD 092322
TAFHON
TAF
KHON 092322Z 1000/1024 03005KT 6SM -SN SCT035 OVC060
     FM100200 02005KT P6SM OVC060
     FM101200 06006KT P6SM -SN OVC040
     FM101300 07006KT 6SM -SN OVC025
     FM101500 09008KT 1 1/2SM -SN OVC015=

USA.gov is the U.S. government's official web portal to all federal, state and local government web resources and services.